createdAt,value
2023-05-21T00:02:11.928Z,8.60
2023-05-21T00:05:15.348Z,11.10
2023-05-21T00:08:16.782Z,10.98
2023-05-21T00:11:18.182Z,9.70
2023-05-21T00:14:19.539Z,10.18
2023-05-21T00:17:20.894Z,10.32
2023-05-21T00:20:23.204Z,9.77
2023-05-21T00:23:26.175Z,10.52
2023-05-21T00:26:27.651Z,10.07
2023-05-21T00:29:30.074Z,9.23
2023-05-21T00:32:31.505Z,9.82
2023-05-21T00:35:32.920Z,10.48
2023-05-21T00:38:34.581Z,11.30
2023-05-21T00:41:35.912Z,8.35
2023-05-21T00:44:37.248Z,8.88
2023-05-21T00:47:39.356Z,10.98
2023-05-21T00:50:41.534Z,9.05
2023-05-21T00:53:44.460Z,10.30
2023-05-21T00:56:45.992Z,8.98
2023-05-21T00:59:48.290Z,10.00
2023-05-21T01:02:50.620Z,10.02
2023-05-21T01:05:53.052Z,9.73
2023-05-21T01:08:56.225Z,9.70
2023-05-21T01:11:57.827Z,9.57
2023-05-21T01:15:05.513Z,10.13
2023-05-21T01:18:07.722Z,10.07
2023-05-21T01:21:09.720Z,10.80
2023-05-21T01:24:11.046Z,9.02
2023-05-21T01:27:12.350Z,9.57
2023-05-21T01:30:13.971Z,9.65
2023-05-21T01:33:17.269Z,9.90
2023-05-21T01:36:24.070Z,9.32
2023-05-21T01:39:32.593Z,8.75
2023-05-21T01:42:35.456Z,10.02
2023-05-21T01:45:38.794Z,9.63
2023-05-21T01:48:41.250Z,8.82
2023-05-21T01:51:42.738Z,9.25
2023-05-21T01:54:44.133Z,8.98
2023-05-21T01:57:45.562Z,9.85
2023-05-21T02:00:47.229Z,10.00
2023-05-21T02:03:49.321Z,9.13
2023-05-21T02:06:50.908Z,9.98
2023-05-21T02:09:52.230Z,8.02
2023-05-21T02:12:53.563Z,10.25
2023-05-21T02:15:56.238Z,8.23
2023-05-21T02:18:57.956Z,8.55
2023-05-21T02:21:59.304Z,9.25
2023-05-21T02:25:00.643Z,8.23
2023-05-21T02:28:02.461Z,10.25
2023-05-21T02:31:04.014Z,9.60
2023-05-21T02:34:05.554Z,8.50
2023-05-21T02:37:06.919Z,10.20
2023-05-21T02:40:09.845Z,9.77
2023-05-21T02:43:11.173Z,9.48
2023-05-21T02:46:12.537Z,9.05
2023-05-21T02:49:13.969Z,8.75
2023-05-21T02:52:15.249Z,7.88
2023-05-21T02:55:16.524Z,9.98
2023-05-21T02:58:17.859Z,9.27
2023-05-21T03:01:19.223Z,9.25
2023-05-21T03:04:23.325Z,9.55
2023-05-21T03:07:24.599Z,9.82
2023-05-21T03:10:25.961Z,7.63
2023-05-21T03:13:27.388Z,8.35
2023-05-21T03:16:28.839Z,9.02
2023-05-21T03:19:34.420Z,7.28
2023-05-21T03:22:37.483Z,10.00
2023-05-21T03:25:38.921Z,9.40
2023-05-21T03:28:40.272Z,8.45
2023-05-21T03:31:41.677Z,10.05
2023-05-21T03:34:43.019Z,8.95
2023-05-21T03:37:44.382Z,9.30
2023-05-21T03:40:45.859Z,9.32
2023-05-21T03:43:47.221Z,9.00
2023-05-21T03:46:48.539Z,7.95
2023-05-21T03:49:49.907Z,8.57
2023-05-21T03:52:51.204Z,7.57
2023-05-21T03:55:55.259Z,8.57
2023-05-21T04:01:57.973Z,8.10
2023-05-21T04:04:59.321Z,8.73
2023-05-21T04:08:01.004Z,8.90
2023-05-21T04:11:02.320Z,9.18
2023-05-21T04:14:03.599Z,7.57
2023-05-21T04:17:05.324Z,9.43
2023-05-21T04:20:07.046Z,9.43
2023-05-21T04:23:08.435Z,10.20
2023-05-21T04:26:09.737Z,8.60
2023-05-21T04:29:11.513Z,9.75
2023-05-21T04:32:15.091Z,9.70
2023-05-21T04:35:16.425Z,8.45
2023-05-21T04:38:20.771Z,9.55
2023-05-21T04:41:22.159Z,8.30
2023-05-21T04:44:23.476Z,8.00
2023-05-21T04:47:24.825Z,8.70
2023-05-21T04:50:26.139Z,7.72
2023-05-21T04:53:27.422Z,8.98
2023-05-21T04:56:29.516Z,7.72
2023-05-21T04:59:31.909Z,8.82
2023-05-21T05:02:33.323Z,8.65
2023-05-21T05:05:34.964Z,9.15
2023-05-21T05:08:36.556Z,9.50
2023-05-21T05:11:37.897Z,8.88
2023-05-21T05:14:39.195Z,9.05
2023-05-21T05:17:40.587Z,9.52
2023-05-21T05:20:41.884Z,8.38
2023-05-21T05:23:43.141Z,9.73
2023-05-21T05:26:44.471Z,8.32
2023-05-21T05:29:46.748Z,8.73
2023-05-21T05:32:48.062Z,8.60
2023-05-21T05:35:49.384Z,9.27
2023-05-21T05:38:51.251Z,9.27
2023-05-21T05:41:52.612Z,9.02
2023-05-21T05:44:54.011Z,8.73
2023-05-21T05:47:55.387Z,8.18
2023-05-21T05:50:57.137Z,8.10
2023-05-21T05:53:58.464Z,8.82
2023-05-21T05:56:59.805Z,9.07
2023-05-21T06:00:01.224Z,9.07
2023-05-21T06:03:02.665Z,9.20
2023-05-21T06:06:04.155Z,8.15
2023-05-21T06:09:05.502Z,7.88
2023-05-21T06:12:07.047Z,8.40
2023-05-21T06:15:08.661Z,8.52
2023-05-21T06:18:10.116Z,8.68
2023-05-21T06:21:11.550Z,8.65
2023-05-21T06:24:12.847Z,8.38
2023-05-21T06:27:14.226Z,9.30
2023-05-21T06:30:15.594Z,10.48
2023-05-21T06:33:17.023Z,8.35
2023-05-21T06:36:18.473Z,8.75
2023-05-21T06:39:19.933Z,8.88
2023-05-21T06:42:21.342Z,7.18
2023-05-21T06:45:23.250Z,7.68
2023-05-21T06:48:24.576Z,8.55
2023-05-21T06:51:26.033Z,7.45
2023-05-21T06:54:27.361Z,8.18
2023-05-21T06:57:28.696Z,7.47
2023-05-21T07:00:30.024Z,8.25
2023-05-21T07:03:31.529Z,8.85
2023-05-21T07:06:33.066Z,7.13
2023-05-21T07:09:34.357Z,8.05
2023-05-21T07:12:35.797Z,8.23
2023-05-21T07:15:37.396Z,6.70
2023-05-21T07:18:38.975Z,8.32
2023-05-21T07:21:40.292Z,7.75
2023-05-21T07:24:41.614Z,9.00
2023-05-21T07:27:42.920Z,7.50
2023-05-21T07:30:44.290Z,7.07
2023-05-21T07:33:45.631Z,7.05
2023-05-21T07:36:47.073Z,6.60
2023-05-21T07:39:48.356Z,7.93
2023-05-21T07:42:49.683Z,7.60
2023-05-21T07:45:51.203Z,7.00
2023-05-21T07:48:52.521Z,7.25
2023-05-21T07:51:53.837Z,7.65
2023-05-21T07:54:55.152Z,7.00
2023-05-21T07:57:56.563Z,7.95
2023-05-21T08:00:58.401Z,7.18
2023-05-21T08:04:05.840Z,7.47
2023-05-21T08:07:07.511Z,6.93
2023-05-21T08:10:09.064Z,7.00
2023-05-21T08:13:11.617Z,7.55
2023-05-21T08:16:13.103Z,7.18
2023-05-21T08:19:14.557Z,7.28
2023-05-21T08:22:16.013Z,7.30
2023-05-21T08:25:17.353Z,6.90
2023-05-21T08:28:18.688Z,7.35
2023-05-21T08:31:19.996Z,6.50
2023-05-21T08:34:21.390Z,7.90
2023-05-21T08:37:22.818Z,6.95
2023-05-21T08:40:24.110Z,6.38
2023-05-21T08:43:29.154Z,7.07
2023-05-21T08:46:32.591Z,7.28
2023-05-21T08:49:34.534Z,7.72
2023-05-21T08:52:36.072Z,7.05
2023-05-21T08:55:38.847Z,7.38
2023-05-21T08:58:42.559Z,7.28
2023-05-21T09:01:45.971Z,7.55
2023-05-21T09:04:49.206Z,7.60
2023-05-21T09:08:00.921Z,7.30
2023-05-21T09:11:03.277Z,6.95
2023-05-21T09:14:05.438Z,7.20
2023-05-21T09:17:06.808Z,8.32
2023-05-21T09:20:17.577Z,7.00
2023-05-21T09:23:19.159Z,6.32
2023-05-21T09:26:21.633Z,6.68
2023-05-21T09:29:23.000Z,7.43
2023-05-21T09:32:24.323Z,6.60
2023-05-21T09:35:25.734Z,7.13
2023-05-21T09:38:27.269Z,6.93
2023-05-21T09:41:33.361Z,5.93
2023-05-21T09:44:35.296Z,7.03
2023-05-21T09:47:43.673Z,6.00
2023-05-21T09:50:45.807Z,5.80
2023-05-21T09:53:59.534Z,6.65
2023-05-21T09:57:04.196Z,6.00
2023-05-21T10:00:06.500Z,5.78
2023-05-21T10:03:09.836Z,5.93
2023-05-21T10:06:11.554Z,7.15
2023-05-21T10:09:14.732Z,5.63
2023-05-21T10:12:17.804Z,5.93
2023-05-21T10:15:22.023Z,5.55
2023-05-21T10:18:23.655Z,6.07
2023-05-21T10:21:26.112Z,5.88
2023-05-21T10:24:27.831Z,6.28
2023-05-21T10:27:32.019Z,7.07
2023-05-21T10:30:34.567Z,6.00
2023-05-21T10:33:36.527Z,5.85
2023-05-21T10:36:38.252Z,5.90
2023-05-21T10:39:39.721Z,6.40
2023-05-21T10:42:41.016Z,5.90
2023-05-21T10:45:50.296Z,6.03
2023-05-21T10:51:58.594Z,5.85
2023-05-21T10:55:21.221Z,6.55
2023-05-21T10:58:41.051Z,6.38
2023-05-21T11:01:42.592Z,6.38
2023-05-21T11:04:49.101Z,5.80
2023-05-21T11:07:50.511Z,6.32
2023-05-21T11:10:55.729Z,5.75
2023-05-21T11:13:58.401Z,5.65
2023-05-21T11:16:59.947Z,6.13
2023-05-21T11:20:05.060Z,6.13
2023-05-21T11:23:06.391Z,5.78
2023-05-21T11:26:07.701Z,7.10
2023-05-21T11:29:09.408Z,6.97
2023-05-21T11:32:11.824Z,5.93
2023-05-21T11:35:13.898Z,6.32
2023-05-21T11:38:15.278Z,6.50
2023-05-21T11:41:19.907Z,6.18
2023-05-21T11:44:37.117Z,5.85
2023-05-21T11:47:40.034Z,6.07
2023-05-21T11:50:42.413Z,5.80
2023-05-21T11:53:44.303Z,5.63
2023-05-21T11:56:46.071Z,6.07
2023-05-21T11:59:53.464Z,5.57
2023-05-21T12:02:57.389Z,5.85
2023-05-21T12:06:05.457Z,7.15
2023-05-21T12:09:07.047Z,5.50
2023-05-21T12:12:08.881Z,5.93
2023-05-21T12:15:10.597Z,5.20
2023-05-21T12:18:16.549Z,5.72
2023-05-21T12:21:18.203Z,5.43
2023-05-21T12:24:19.538Z,7.13
2023-05-21T12:27:21.596Z,13.23
2023-05-21T12:30:22.890Z,11.13
2023-05-21T12:33:25.970Z,9.88
2023-05-21T12:36:28.274Z,5.20
2023-05-21T12:39:30.190Z,10.10
2023-05-21T12:42:35.543Z,4.85
2023-05-21T12:45:39.397Z,8.77
2023-05-21T12:48:42.642Z,5.85
2023-05-21T12:51:45.061Z,5.78
2023-05-21T12:54:50.423Z,6.22
2023-05-21T12:57:59.852Z,5.63
2023-05-21T13:01:03.774Z,5.45
2023-05-21T13:04:07.891Z,5.18
2023-05-21T13:07:09.278Z,6.30
2023-05-21T13:10:11.226Z,5.22
2023-05-21T13:13:12.569Z,5.13
2023-05-21T13:16:13.912Z,5.50
2023-05-21T13:19:15.831Z,5.00
2023-05-21T13:22:17.226Z,5.43
2023-05-21T13:25:21.011Z,4.80
2023-05-21T13:28:23.641Z,5.07
2023-05-21T13:34:26.140Z,5.13
2023-05-21T13:37:27.502Z,4.60
2023-05-21T13:40:28.939Z,4.97
2023-05-21T13:43:30.507Z,4.30
2023-05-21T13:46:31.920Z,4.25
2023-05-21T13:49:33.825Z,4.82
2023-05-21T13:52:35.432Z,5.00
2023-05-21T13:55:36.780Z,4.90
2023-05-21T13:58:40.534Z,5.22
2023-05-21T14:01:41.923Z,5.03
2023-05-21T14:04:43.233Z,5.40
2023-05-21T14:07:45.348Z,5.30
2023-05-21T14:10:47.784Z,4.82
2023-05-21T14:13:49.171Z,5.07
2023-05-21T14:16:51.144Z,5.45
2023-05-21T14:19:52.752Z,4.88
2023-05-21T14:22:54.232Z,5.00
2023-05-21T14:25:55.496Z,4.75
2023-05-21T14:28:56.816Z,4.75
2023-05-21T14:31:58.145Z,4.43
2023-05-21T14:35:00.010Z,5.28
2023-05-21T14:38:01.377Z,4.78
2023-05-21T14:41:02.978Z,4.40
2023-05-21T14:44:04.402Z,4.93
2023-05-21T14:47:05.932Z,4.45
2023-05-21T14:50:07.474Z,4.30
2023-05-21T14:53:09.791Z,4.25
2023-05-21T14:56:11.125Z,4.75
2023-05-21T14:59:12.841Z,4.28
2023-05-21T15:02:14.320Z,4.43
2023-05-21T15:05:15.752Z,4.55
2023-05-21T15:08:17.066Z,5.32
2023-05-21T15:11:18.464Z,4.80
2023-05-21T15:14:20.666Z,5.88
2023-05-21T15:17:21.989Z,5.22
2023-05-21T15:20:23.366Z,4.60
2023-05-21T15:23:24.829Z,4.60
2023-05-21T15:26:26.957Z,5.07
2023-05-21T15:29:28.294Z,5.53
2023-05-21T15:32:30.586Z,6.10
2023-05-21T15:35:32.052Z,4.97
2023-05-21T15:38:33.500Z,5.50
2023-05-21T15:41:35.354Z,5.32
2023-05-21T15:44:37.046Z,5.15
2023-05-21T15:47:42.712Z,5.00
2023-05-21T15:50:44.332Z,5.32
2023-05-21T15:53:45.744Z,5.30
2023-05-21T15:56:47.054Z,5.28
2023-05-21T15:59:50.299Z,5.40
2023-05-21T16:05:52.976Z,4.68
2023-05-21T16:08:54.318Z,4.93
2023-05-21T16:11:55.733Z,4.82
2023-05-21T16:14:57.086Z,5.18
2023-05-21T16:17:58.407Z,5.38
2023-05-21T16:20:59.763Z,5.40
2023-05-21T16:24:01.463Z,5.20
2023-05-21T16:27:02.852Z,5.10
2023-05-21T16:30:04.420Z,5.35
2023-05-21T16:33:05.899Z,5.18
2023-05-21T16:36:07.401Z,5.25
2023-05-21T16:39:08.744Z,5.35
2023-05-21T16:42:10.045Z,5.50
2023-05-21T16:45:15.671Z,5.68
2023-05-21T16:48:17.139Z,5.97
2023-05-21T16:51:18.531Z,4.95
2023-05-21T16:54:19.845Z,5.53
2023-05-21T16:57:21.265Z,5.40
2023-05-21T17:00:22.728Z,6.43
2023-05-21T17:03:24.329Z,5.95
2023-05-21T17:06:25.816Z,5.57
2023-05-21T17:09:27.236Z,5.50
2023-05-21T17:12:28.574Z,5.13
2023-05-21T17:15:29.896Z,5.40
2023-05-21T17:18:31.394Z,5.68
2023-05-21T17:21:33.409Z,5.07
2023-05-21T17:24:34.826Z,4.80
2023-05-21T17:27:36.333Z,5.03
2023-05-21T17:30:37.734Z,5.50
2023-05-21T17:33:39.120Z,5.47
2023-05-21T17:36:40.499Z,6.40
2023-05-21T17:39:41.860Z,6.00
2023-05-21T17:42:43.187Z,5.78
2023-05-21T17:45:44.568Z,5.40
2023-05-21T17:48:45.952Z,5.18
2023-05-21T17:51:47.967Z,5.47
2023-05-21T17:54:49.426Z,5.63
2023-05-21T17:57:50.876Z,5.35
2023-05-21T18:00:52.253Z,5.43
2023-05-21T18:03:53.671Z,6.40
2023-05-21T18:06:55.158Z,5.53
2023-05-21T18:09:56.543Z,6.00
2023-05-21T18:12:57.890Z,6.82
2023-05-21T18:15:59.245Z,6.13
2023-05-21T18:19:05.971Z,6.05
2023-05-21T18:22:07.692Z,5.63
2023-05-21T18:25:09.441Z,5.85
2023-05-21T18:28:10.850Z,6.25
2023-05-21T18:31:12.249Z,6.25
2023-05-21T18:34:13.686Z,6.30
2023-05-21T18:37:16.900Z,6.68
2023-05-21T18:40:18.802Z,6.00
2023-05-21T18:43:20.134Z,5.65
2023-05-21T18:46:21.694Z,5.60
2023-05-21T18:49:23.404Z,5.65
2023-05-21T18:52:24.872Z,6.13
2023-05-21T18:55:26.510Z,5.70
2023-05-21T18:58:29.294Z,5.97
2023-05-21T19:01:30.829Z,6.38
2023-05-21T19:04:32.211Z,7.25
2023-05-21T19:07:33.759Z,5.72
2023-05-21T19:10:35.348Z,6.50
2023-05-21T19:13:36.936Z,6.68
2023-05-21T19:16:38.396Z,5.65
2023-05-21T19:19:40.026Z,6.90
2023-05-21T19:22:41.367Z,5.95
2023-05-21T19:25:42.729Z,6.15
2023-05-21T19:28:44.541Z,6.45
2023-05-21T19:31:45.881Z,7.25
2023-05-21T19:34:48.212Z,6.90
2023-05-21T19:37:49.890Z,6.50
2023-05-21T19:40:51.282Z,7.00
2023-05-21T19:43:52.613Z,7.10
2023-05-21T19:46:54.492Z,7.13
2023-05-21T19:49:56.418Z,7.05
2023-05-21T19:52:57.734Z,6.55
2023-05-21T19:55:59.141Z,7.38
2023-05-21T19:59:00.635Z,6.80
2023-05-21T20:02:01.992Z,7.20
2023-05-21T20:05:03.387Z,6.57
2023-05-21T20:08:05.060Z,7.78
2023-05-21T20:11:06.489Z,7.88
2023-05-21T20:14:07.906Z,7.63
2023-05-21T20:17:09.451Z,7.00
2023-05-21T20:20:11.758Z,7.32
2023-05-21T20:23:13.601Z,7.55
2023-05-21T20:26:15.752Z,6.80
2023-05-21T20:29:17.157Z,7.93
2023-05-21T20:32:18.627Z,7.57
2023-05-21T20:35:20.086Z,7.10
2023-05-21T20:38:21.571Z,6.82
2023-05-21T20:41:25.262Z,7.13
2023-05-21T20:44:27.508Z,6.63
2023-05-21T20:47:31.893Z,7.05
2023-05-21T20:50:34.759Z,6.55
2023-05-21T20:53:36.885Z,7.40
2023-05-21T20:56:42.072Z,7.82
2023-05-21T20:59:43.799Z,8.05
2023-05-21T21:02:45.751Z,7.43
2023-05-21T21:05:47.282Z,7.30
2023-05-21T21:08:50.162Z,7.53
2023-05-21T21:11:51.542Z,7.57
2023-05-21T21:14:53.027Z,7.55
2023-05-21T21:17:54.694Z,7.30
2023-05-21T21:20:56.133Z,7.07
2023-05-21T21:23:57.506Z,6.60
2023-05-21T21:26:58.817Z,7.20
2023-05-21T21:30:00.136Z,6.40
2023-05-21T21:33:01.541Z,6.60
2023-05-21T21:36:03.168Z,6.82
2023-05-21T21:39:04.550Z,6.53
2023-05-21T21:42:06.176Z,7.22
2023-05-21T21:45:08.011Z,6.43
2023-05-21T21:48:09.335Z,6.93
2023-05-21T21:51:10.794Z,6.13
2023-05-21T21:54:12.232Z,6.85
2023-05-21T21:57:13.619Z,6.95
2023-05-21T22:00:17.052Z,7.05
2023-05-21T22:03:18.727Z,7.30
2023-05-21T22:06:20.059Z,6.55
2023-05-21T22:09:22.551Z,7.20
2023-05-21T22:12:23.953Z,6.53
2023-05-21T22:15:28.483Z,7.30
2023-05-21T22:18:40.350Z,7.38
2023-05-21T22:21:43.222Z,7.20
2023-05-21T22:24:44.567Z,7.32
2023-05-21T22:27:45.967Z,7.32
2023-05-21T22:30:47.327Z,7.93
2023-05-21T22:33:48.723Z,7.70
2023-05-21T22:36:50.062Z,7.35
2023-05-21T22:39:51.801Z,7.55
2023-05-21T22:42:53.120Z,7.90
2023-05-21T22:45:54.731Z,7.93
2023-05-21T22:48:56.108Z,8.23
2023-05-21T22:51:59.188Z,7.43
2023-05-21T22:55:00.823Z,8.05
2023-05-21T22:58:02.176Z,8.23
2023-05-21T23:01:04.321Z,8.27
2023-05-21T23:04:05.817Z,8.00
2023-05-21T23:07:07.198Z,8.40
2023-05-21T23:10:08.760Z,8.77
2023-05-21T23:13:10.182Z,9.18
2023-05-21T23:16:12.522Z,8.70
2023-05-21T23:19:14.391Z,9.05
2023-05-21T23:22:15.913Z,7.53
2023-05-21T23:25:17.812Z,8.20
2023-05-21T23:28:19.321Z,9.43
2023-05-21T23:31:20.783Z,7.90
2023-05-21T23:34:24.623Z,9.63
2023-05-21T23:37:26.093Z,8.57
2023-05-21T23:40:27.393Z,9.07
2023-05-21T23:43:28.733Z,8.45
2023-05-21T23:46:30.076Z,8.85
2023-05-21T23:49:31.383Z,8.00
2023-05-21T23:52:32.663Z,8.98
2023-05-21T23:55:34.003Z,8.63
2023-05-21T23:58:36.429Z,7.88
